Fédération internationale de Ski
Member Section
Print

OFFICIAL RESULTS

Bialka Tatrzanska (POL) 21.12.2016

FIS - Men's Slalom

Race codex : 2057
Valid for FIS Points : YES
Jury
TD FIS GANTNEROVA JANKA SVK
Referee BIZIK BRANISLAV CZE
Chief of Race HORECKI KRZYSZTOF POL
Technical Data
Start Altitude 912 m.
Finish Altitude 760 m.
Vertical Drop 152 m.
Homologation Number 12246/12/16
Run 1
Course Setter HOLEK ZYGMUNT POL
Number of Gates 51
Turning Gates 50
Start Time 9:30
Run 2
Course Setter MITAN WOJCIECH POL
Number of Gates 56
Turning Gates 54
Start Time 12:00
 
Show more info»

Competitors

Display filter form
Rank Bib FIS Code Name Year Nation Run 1 Run 2 Total Time Diff. FIS Points
 1  7  700901 HYSKA Martin  1994  SVK   45.40  44.92  1:30.32     35.27
 2  1  151119 STASZOWSKI Michal  1995  CZE   45.39  45.20  1:30.59  +0.27  37.42
 3  8  430667 BIALOBRZYCKI Dominik  1995  POL   45.01  45.66  1:30.67  +0.35  38.06
 4  15  700956 JAROSCAK Miroslav  1999  SVK   46.31  44.68  1:30.99  +0.67  40.61
 5  12  430783 HABDAS Piotr  1998  POL   46.34  44.95  1:31.29  +0.97  43.00
 6  17  430672 TABASZEWSKI Jakub  1995  POL   46.05  45.62  1:31.67  +1.35  46.03
 7  2  151061 VACLAVIK Lukas  1994  CZE   45.89  45.91  1:31.80  +1.48  47.07
 8  14  430802 PYJAS Pawel  1999  POL   46.86  45.15  1:32.01  +1.69  48.74
 9  9  151110 STEPAN Martin  1995  CZE   46.80  46.17  1:32.97  +2.65  56.39
 10  32  700953 MAZGUT Denis  1999  SVK   47.87  45.42  1:33.29  +2.97  58.95
 11  10  151129 VASULIN Marek  1995  CZE   47.91  45.78  1:33.69  +3.37  62.13
 12  13  430801 MITAN Juliusz  1999  POL   47.17  46.72  1:33.89  +3.57  63.73
 13  16  430344 GAJEWSKI-GLODEK Jakub  1984  POL   47.27  46.81  1:34.08  +3.76  65.24
 14  33  430810 MICHALIK Michal  2000  POL   47.49  46.75  1:34.24  +3.92  66.52
 15  23  430795 CHYC Alex  1999  POL   47.88  46.38  1:34.26  +3.94  66.68
 16  34  430805 KRAWCZYK Piotr  1999  POL   47.22  47.08  1:34.30  +3.98  67.00
 17  20  690694 KOVBASNYUK Ivan  1993  UKR   47.72  46.60  1:34.32  +4.00  67.16
 18  18  430809 MATULKA Jakub  2000  POL   47.77  46.62  1:34.39  +4.07  67.71
 19  11  151039 NEMEC Jan  1993  CZE   48.25  46.19  1:34.44  +4.12  68.11
 20  59  430811 WROBEL Norbert  2000  POL   48.67  46.37  1:35.04  +4.72  72.90
 20  24  151292 PROVAZNIK Adam  2000  CZE   48.64  46.40  1:35.04  +4.72  72.90
 22  39  430808 GRODECKI Jan  2000  POL   48.08  47.37  1:35.45  +5.13  76.16
 23  26  430776 SZADKOWSKI Filip  1998  POL   48.38  47.17  1:35.55  +5.23  76.96
 24  48  700967 KOSIK Tomas  2000  SVK   48.82  46.80  1:35.62  +5.30  77.52
 25  28  390039 VIRRO Sten-Mark  1997  EST   48.10  47.57  1:35.67  +5.35  77.92
 26  21  550087 ZVEJNIEKS Davis  1998  LAT   48.70  47.16  1:35.86  +5.54  79.43
 27  25  151263 FIALA Eduard  1999  CZE   48.33  47.65  1:35.98  +5.66  80.39
 28  45  151284 KOULA Jan  2000  CZE   49.09  47.49  1:36.58  +6.26  85.17
 29  27  690672 TELYCHUK Vasyl  1992  UKR   48.91  47.99  1:36.90  +6.58  87.72
 30  29  430775 SICHELSKI Marcin  1998  POL   48.77  48.15  1:36.92  +6.60  87.88
 31  43  151287 MILATA Jiri  2000  CZE   49.07  47.97  1:37.04  +6.72  88.84
 32  35  151261 MARAS Jan  1999  CZE   48.85  48.66  1:37.51  +7.19  92.59
 33  37  151288 RECHTENBERG Jan  2000  CZE   49.50  48.10  1:37.60  +7.28  93.30
 34  56  430812 LUKASZYK Bruno  2000  POL   49.19  48.49  1:37.68  +7.36  93.94
 35  22  250399 GUDMUNDSSON Bjorn Asgeir  1998  ISL   49.32  48.66  1:37.98  +7.66  96.33
 36  31  151259 SLAVICEK Vojtech  1999  CZE   49.45  48.67  1:38.12  +7.80  97.45
 37  38  690737 TSIBELENKO Levko  1996  UKR   49.57  49.24  1:38.81  +8.49  102.95
 38  41  660026 ZVERNIK Vlad  1998  BLR   50.39  49.04  1:39.43  +9.11  107.89
 39  58  430814 KOWALCZYK Grzegorz  2000  POL   50.25  49.53  1:39.78  +9.46  110.68
 40  36  430739 JAKSINA Pawel  1996  POL   50.59  49.63  1:40.22  +9.90  114.19
 41  42  151250 BOKUVKA Jan  1999  CZE   51.79  50.66  1:42.45  +12.13  131.97
 42  55  430816 CZERWINSKI Michal  2000  POL   52.98  51.06  1:44.04  +13.72  144.64
 43  47  700955 POLOMCAK Daniel  1999  SVK   53.10  51.70  1:44.80  +14.48  150.70
 44  30  690732 MARIICHYN Andriy  1995  UKR   55.78  49.79  1:45.57  +15.25  156.84
 45  40  690760 KOVALEVSKYY Roman  1999  UKR   53.56  53.11  1:46.67  +16.35  165.61
 46  57  430818 CICHY Jakub  2000  POL   53.55  54.06  1:47.61  +17.29  173.10
 47  44  550096 CERNEVSKIS Kristers  1999  LAT   54.31  54.38  1:48.69  +18.37  181.71
 48  51  430770 MARCZEWSKI Maciej  1982  POL   57.13  57.72  1:54.85  +24.53  230.81
 49  52  700965 KASPERKEVIC Viliam  2000  SVK   1:01.21  55.43  1:56.64  +26.32  245.08
 50  53  430806 FRANKIEWICZ Mikolaj  1989  POL   1:03.00  1:02.00  2:05.00  +34.68  311.73
Did not finish 2nd run
   50  430486 SOLTYS Jan  1986  POL           
   19  700862 KUPCOK Jakub  1992  SVK           
   6  221090 TREBILCOCK Robert  1993  GBR           
Did not finish 1st run
   54  430817 MACHETA Wojciech  2000  POL           
   46  700942 KUPCOK Mikulas  1998  SVK           
   3  430610 STARZYK Pawel  1993  POL           
Disqualified 1st run
   49  690768 AIB Vitalii  2000  UKR           
   5  430666 BIALOBRZYCKI Sebastian  1994  POL           
   4  430742 LATUSEK Sylwester  1996  POL